createdAt,value
2022-09-29T00:00:36.254Z,8.69
2022-09-29T00:03:04.466Z,8.63
2022-09-29T00:05:33.833Z,8.54
2022-09-29T00:08:02.294Z,8.52
2022-09-29T00:10:30.405Z,8.33
2022-09-29T00:12:58.334Z,8.28
2022-09-29T00:15:26.248Z,8.12
2022-09-29T00:20:43.448Z,8.13
2022-09-29T00:23:11.358Z,8.20
2022-09-29T00:25:39.325Z,8.15
2022-09-29T00:28:07.230Z,8.22
2022-09-29T00:30:35.161Z,8.21
2022-09-29T00:33:03.075Z,8.09
2022-09-29T00:35:30.998Z,8.01
2022-09-29T00:38:00.250Z,7.91
2022-09-29T00:40:28.217Z,7.92
2022-09-29T00:42:56.155Z,7.80
2022-09-29T00:45:24.783Z,7.96
2022-09-29T00:47:58.973Z,7.84
2022-09-29T00:50:30.129Z,7.97
2022-09-29T00:53:02.745Z,7.98
2022-09-29T00:55:34.467Z,7.97
2022-09-29T00:58:05.361Z,8.05
2022-09-29T01:00:33.397Z,7.84
2022-09-29T01:03:06.105Z,8.01
2022-09-29T01:05:35.881Z,7.49
2022-09-29T01:08:12.072Z,7.88
2022-09-29T01:10:41.190Z,7.78
2022-09-29T01:13:09.170Z,7.95
2022-09-29T01:15:37.285Z,7.84
2022-09-29T01:18:06.803Z,7.83
2022-09-29T01:20:36.320Z,7.87
2022-09-29T01:23:29.468Z,7.81
2022-09-29T01:26:31.201Z,7.68
2022-09-29T01:29:37.483Z,7.73
2022-09-29T01:32:10.574Z,7.54
2022-09-29T01:34:42.138Z,7.67
2022-09-29T01:37:17.520Z,7.70
2022-09-29T01:39:49.861Z,7.77
2022-09-29T01:42:20.662Z,7.37
2022-09-29T01:44:51.840Z,7.82
2022-09-29T01:47:23.838Z,7.53
2022-09-29T01:49:54.353Z,7.60
2022-09-29T01:52:23.845Z,7.65
2022-09-29T01:54:54.026Z,7.65
2022-09-29T01:57:26.110Z,7.73
2022-09-29T01:59:57.300Z,7.39
2022-09-29T02:02:31.856Z,7.99
2022-09-29T02:05:02.601Z,8.01
2022-09-29T02:07:35.310Z,7.82
2022-09-29T02:10:06.047Z,7.70
2022-09-29T02:12:36.457Z,7.76
2022-09-29T02:15:06.709Z,7.81
2022-09-29T02:17:38.375Z,7.86
2022-09-29T02:20:07.132Z,7.97
2022-09-29T02:22:36.547Z,7.91
2022-09-29T02:25:05.675Z,7.68
2022-09-29T02:27:34.416Z,7.73
2022-09-29T02:30:02.326Z,7.83
2022-09-29T02:32:31.108Z,7.72
2022-09-29T02:35:01.734Z,8.02
2022-09-29T02:37:38.666Z,7.49
2022-09-29T02:40:18.492Z,7.73
2022-09-29T02:42:56.872Z,7.67
2022-09-29T02:45:32.517Z,7.76
2022-09-29T02:48:12.323Z,7.64
2022-09-29T02:50:50.546Z,7.40
2022-09-29T02:53:26.571Z,7.59
2022-09-29T02:55:59.909Z,7.62
2022-09-29T02:58:31.198Z,7.59
2022-09-29T03:00:59.604Z,7.50
2022-09-29T03:03:27.604Z,7.71
2022-09-29T03:05:57.205Z,7.79
2022-09-29T03:08:25.506Z,7.95
2022-09-29T03:10:53.856Z,7.81
2022-09-29T03:13:21.725Z,7.77
2022-09-29T03:15:49.622Z,7.85
2022-09-29T03:18:17.542Z,8.00
2022-09-29T03:20:45.437Z,7.84
2022-09-29T03:23:14.711Z,7.62
2022-09-29T03:25:43.092Z,7.51
2022-09-29T03:28:11.049Z,7.61
2022-09-29T03:30:38.975Z,7.67
2022-09-29T03:33:06.863Z,7.56
2022-09-29T03:35:34.815Z,7.75
2022-09-29T03:38:02.722Z,7.67
2022-09-29T03:40:32.027Z,7.50
2022-09-29T03:42:59.966Z,7.37
2022-09-29T03:45:27.889Z,7.45
2022-09-29T03:47:56.142Z,7.58
2022-09-29T03:50:24.021Z,7.52
2022-09-29T03:52:51.918Z,7.54
2022-09-29T03:55:19.819Z,7.50
2022-09-29T03:57:49.057Z,7.64
2022-09-29T04:00:17.146Z,7.58
2022-09-29T04:02:45.045Z,7.60
2022-09-29T04:05:12.981Z,7.38
2022-09-29T04:07:40.852Z,7.36
2022-09-29T04:10:09.388Z,7.31
2022-09-29T04:12:37.313Z,7.33
2022-09-29T04:15:07.720Z,7.14
2022-09-29T04:17:35.653Z,7.32
2022-09-29T04:20:03.725Z,7.27
2022-09-29T04:22:31.684Z,7.23
2022-09-29T04:24:59.818Z,7.23
2022-09-29T04:27:27.707Z,6.93
2022-09-29T04:29:55.677Z,7.21
2022-09-29T04:32:25.263Z,7.14
2022-09-29T04:34:53.254Z,7.13
2022-09-29T04:37:21.153Z,7.10
2022-09-29T04:39:49.062Z,7.14
2022-09-29T04:42:16.990Z,7.16
2022-09-29T04:44:44.932Z,7.21
2022-09-29T04:47:13.015Z,7.28
2022-09-29T04:49:42.381Z,7.20
2022-09-29T04:52:12.670Z,7.03
2022-09-29T04:54:40.696Z,7.13
2022-09-29T04:57:09.927Z,7.06
2022-09-29T04:59:37.865Z,7.24
2022-09-29T05:02:05.849Z,7.31
2022-09-29T05:04:33.850Z,7.18
2022-09-29T05:07:03.113Z,7.33
2022-09-29T05:09:33.611Z,7.31
2022-09-29T05:12:02.462Z,7.42
2022-09-29T05:14:30.435Z,7.36
2022-09-29T05:16:58.836Z,7.29
2022-09-29T05:19:26.745Z,7.32
2022-09-29T05:21:54.642Z,7.43
2022-09-29T05:24:23.946Z,7.53
2022-09-29T05:26:57.515Z,7.31
2022-09-29T05:29:26.505Z,7.58
2022-09-29T05:31:54.554Z,7.69
2022-09-29T05:34:22.908Z,7.56
2022-09-29T05:36:51.066Z,7.64
2022-09-29T05:39:20.989Z,7.57
2022-09-29T05:41:50.837Z,7.72
2022-09-29T05:44:18.726Z,7.71
2022-09-29T05:46:46.637Z,7.88
2022-09-29T05:49:14.603Z,7.98
2022-09-29T05:51:42.612Z,7.83
2022-09-29T05:54:10.663Z,8.02
2022-09-29T05:56:41.889Z,7.98
2022-09-29T05:59:15.181Z,7.97
2022-09-29T06:01:43.310Z,7.89
2022-09-29T06:04:11.338Z,7.71
2022-09-29T06:06:40.352Z,7.86
2022-09-29T06:09:08.885Z,7.64
2022-09-29T06:11:36.845Z,7.66
2022-09-29T06:14:04.815Z,7.73
2022-09-29T06:16:34.732Z,7.71
2022-09-29T06:19:03.611Z,7.89
2022-09-29T06:21:32.104Z,8.33
2022-09-29T06:24:00.018Z,8.42
2022-09-29T06:26:28.793Z,8.55
2022-09-29T06:28:58.620Z,8.68
2022-09-29T06:31:28.505Z,8.62
2022-09-29T06:33:59.542Z,8.67
2022-09-29T06:36:47.320Z,8.71
2022-09-29T06:39:16.546Z,8.47
2022-09-29T06:41:48.758Z,8.72
2022-09-29T06:44:16.894Z,8.36
2022-09-29T06:46:44.852Z,8.26
2022-09-29T06:49:15.394Z,8.27
2022-09-29T06:51:46.483Z,7.83
2022-09-29T06:54:15.351Z,8.12
2022-09-29T06:56:43.674Z,8.35
2022-09-29T06:59:11.563Z,8.53
2022-09-29T07:01:39.733Z,8.92
2022-09-29T07:04:08.033Z,9.17
2022-09-29T07:06:37.449Z,9.10
2022-09-29T07:09:05.422Z,9.47
2022-09-29T07:11:33.322Z,9.82
2022-09-29T07:14:01.213Z,9.99
2022-09-29T07:16:29.146Z,10.11
2022-09-29T07:18:57.126Z,10.04
2022-09-29T07:21:28.318Z,10.70
2022-09-29T07:24:01.868Z,10.61
2022-09-29T07:26:30.406Z,10.99
2022-09-29T07:28:58.624Z,11.14
2022-09-29T07:31:26.658Z,11.35
2022-09-29T07:33:54.609Z,11.99
2022-09-29T07:36:22.639Z,12.20
2022-09-29T07:38:52.340Z,11.87
2022-09-29T07:41:23.060Z,11.84
2022-09-29T07:43:51.162Z,11.71
2022-09-29T07:46:19.187Z,11.27
2022-09-29T07:48:47.179Z,11.37
2022-09-29T07:51:16.951Z,11.44
2022-09-29T07:53:44.862Z,11.31
2022-09-29T07:56:14.635Z,11.31
2022-09-29T07:58:43.942Z,11.15
2022-09-29T08:01:13.415Z,11.14
2022-09-29T08:03:42.036Z,11.14
2022-09-29T08:06:10.069Z,10.84
2022-09-29T08:08:41.123Z,10.19
2022-09-29T08:11:19.054Z,10.56
2022-09-29T08:13:54.212Z,10.74
2022-09-29T08:16:22.236Z,10.69
2022-09-29T08:18:50.487Z,10.65
2022-09-29T08:21:18.507Z,10.52
2022-09-29T08:23:46.568Z,10.39
2022-09-29T08:26:16.415Z,10.89
2022-09-29T08:28:45.253Z,11.05
2022-09-29T08:31:16.915Z,11.38
2022-09-29T08:33:45.170Z,11.43
2022-09-29T08:36:15.833Z,11.47
2022-09-29T08:38:44.783Z,11.59
2022-09-29T08:41:23.333Z,11.21
2022-09-29T08:44:35.741Z,11.21
2022-09-29T08:47:16.178Z,11.97
2022-09-29T08:49:45.346Z,12.28
2022-09-29T08:52:18.237Z,12.01
2022-09-29T08:54:50.722Z,11.93
2022-09-29T08:57:20.281Z,12.22
2022-09-29T08:59:52.734Z,12.77
2022-09-29T09:02:50.879Z,12.78
2022-09-29T09:05:44.274Z,13.85
2022-09-29T09:08:19.755Z,14.08
2022-09-29T09:10:51.815Z,13.66
2022-09-29T09:13:30.565Z,13.64
2022-09-29T09:16:09.515Z,13.77
2022-09-29T09:19:05.096Z,13.27
2022-09-29T09:21:39.025Z,13.09
2022-09-29T09:24:20.271Z,13.94
2022-09-29T09:26:50.706Z,13.79
2022-09-29T09:29:24.719Z,13.08
2022-09-29T09:31:57.666Z,13.76
2022-09-29T09:34:41.279Z,13.32
2022-09-29T09:37:15.608Z,14.04
2022-09-29T09:39:48.654Z,14.01
2022-09-29T09:42:19.652Z,14.60
2022-09-29T09:44:50.817Z,13.94
2022-09-29T09:47:26.549Z,14.75
2022-09-29T09:49:58.697Z,14.50
2022-09-29T09:52:30.850Z,13.63
2022-09-29T09:55:01.284Z,14.00
2022-09-29T09:57:42.726Z,14.18
2022-09-29T10:00:13.342Z,14.46
2022-09-29T10:02:45.063Z,14.24
2022-09-29T10:05:16.331Z,14.02
2022-09-29T10:07:44.698Z,13.82
2022-09-29T10:10:18.685Z,14.28
2022-09-29T10:12:46.764Z,13.98
2022-09-29T10:15:20.105Z,14.39
2022-09-29T10:17:52.278Z,14.56
2022-09-29T10:20:34.639Z,14.72
2022-09-29T10:23:30.521Z,14.67
2022-09-29T10:26:06.060Z,14.45
2022-09-29T10:28:41.175Z,15.64
2022-09-29T10:31:20.158Z,15.71
2022-09-29T10:33:51.434Z,16.10
2022-09-29T10:36:21.910Z,15.77
2022-09-29T10:38:51.182Z,15.63
2022-09-29T10:41:20.033Z,14.95
2022-09-29T10:43:49.421Z,14.37
2022-09-29T10:46:38.015Z,14.64
2022-09-29T10:49:15.456Z,15.41
2022-09-29T10:51:54.530Z,15.23
2022-09-29T10:54:25.586Z,15.21
2022-09-29T10:56:54.643Z,15.02
2022-09-29T10:59:23.579Z,14.75
2022-09-29T11:01:53.858Z,15.51
2022-09-29T11:04:24.937Z,15.52
2022-09-29T11:06:54.760Z,15.60
2022-09-29T11:09:37.672Z,16.26
2022-09-29T11:12:09.348Z,15.78
2022-09-29T11:14:42.314Z,15.65
2022-09-29T11:17:22.853Z,15.40
2022-09-29T11:19:51.085Z,14.89
2022-09-29T11:22:37.094Z,14.90
2022-09-29T11:25:23.689Z,14.92
2022-09-29T11:28:01.828Z,14.83
2022-09-29T11:30:36.841Z,15.03
2022-09-29T11:33:13.834Z,15.54
2022-09-29T11:35:47.500Z,15.37
2022-09-29T11:38:38.641Z,15.60
2022-09-29T11:41:21.987Z,15.18
2022-09-29T11:43:54.465Z,15.20
2022-09-29T11:46:32.410Z,15.67
2022-09-29T11:49:28.984Z,15.76
2022-09-29T11:52:09.350Z,15.67
2022-09-29T11:55:04.013Z,15.33
2022-09-29T11:57:45.709Z,15.08
2022-09-29T12:00:15.813Z,15.19
2022-09-29T12:03:06.695Z,15.38
2022-09-29T12:05:45.474Z,14.99
2022-09-29T12:08:27.284Z,14.56
2022-09-29T12:10:59.770Z,14.43
2022-09-29T12:13:34.442Z,14.40
2022-09-29T12:16:04.529Z,14.21
2022-09-29T12:18:39.564Z,14.75
2022-09-29T12:21:10.395Z,15.37
2022-09-29T12:23:40.470Z,15.13
2022-09-29T12:26:12.467Z,14.92
2022-09-29T12:28:43.609Z,14.91
2022-09-29T12:31:15.036Z,15.03
2022-09-29T12:33:46.141Z,14.83
2022-09-29T12:36:46.798Z,15.07
2022-09-29T12:39:33.229Z,14.67
2022-09-29T12:42:14.288Z,15.09
2022-09-29T12:44:45.000Z,15.13
2022-09-29T12:47:17.716Z,15.69
2022-09-29T12:50:01.439Z,15.39
2022-09-29T12:52:36.624Z,15.31
2022-09-29T12:55:06.673Z,15.09
2022-09-29T12:57:38.035Z,15.25
2022-09-29T13:00:09.371Z,14.97
2022-09-29T13:02:56.061Z,14.80
2022-09-29T13:05:38.410Z,14.53
2022-09-29T13:08:30.424Z,14.02
2022-09-29T13:11:10.480Z,13.77
2022-09-29T13:14:01.736Z,14.01
2022-09-29T13:16:50.186Z,13.72
2022-09-29T13:20:03.004Z,13.88
2022-09-29T13:22:56.418Z,13.81
2022-09-29T13:25:26.780Z,13.76
2022-09-29T13:27:56.100Z,13.46
2022-09-29T13:30:26.807Z,13.44
2022-09-29T13:32:59.916Z,13.47
2022-09-29T13:35:27.947Z,13.53
2022-09-29T13:37:57.436Z,13.23
2022-09-29T13:40:26.873Z,13.50
2022-09-29T13:42:56.005Z,13.83
2022-09-29T13:45:46.851Z,13.74
2022-09-29T13:48:39.482Z,13.75
2022-09-29T13:51:27.789Z,13.72
2022-09-29T13:54:33.378Z,13.62
2022-09-29T13:57:07.728Z,13.55
2022-09-29T13:59:35.977Z,13.76
2022-09-29T14:02:20.059Z,13.78
2022-09-29T14:04:55.699Z,13.44
2022-09-29T14:07:37.754Z,13.32
2022-09-29T14:10:08.190Z,13.16
2022-09-29T14:12:36.470Z,12.87
2022-09-29T14:15:05.009Z,12.78
2022-09-29T14:17:37.201Z,12.78
2022-09-29T14:20:09.817Z,12.94
2022-09-29T14:23:07.943Z,13.07
2022-09-29T14:25:53.845Z,12.95
2022-09-29T14:28:25.232Z,12.76
2022-09-29T14:30:55.743Z,13.02
2022-09-29T14:33:27.146Z,13.04
2022-09-29T14:36:06.058Z,12.89
2022-09-29T14:38:36.301Z,12.80
2022-09-29T14:41:19.946Z,12.64
2022-09-29T14:43:49.683Z,12.58
2022-09-29T14:46:57.952Z,12.44
2022-09-29T14:49:56.463Z,12.36
2022-09-29T14:52:35.240Z,12.33
2022-09-29T14:57:52.488Z,12.09
2022-09-29T15:00:21.769Z,12.22
2022-09-29T15:02:59.614Z,12.18
2022-09-29T15:05:36.252Z,12.16
2022-09-29T15:08:16.277Z,12.13
2022-09-29T15:10:44.237Z,12.14
2022-09-29T15:13:21.493Z,12.10
2022-09-29T15:15:50.471Z,12.17
2022-09-29T15:18:39.682Z,12.07
2022-09-29T15:21:16.373Z,11.94
2022-09-29T15:23:57.696Z,11.97
2022-09-29T15:26:27.158Z,11.97
2022-09-29T15:28:55.113Z,11.91
2022-09-29T15:31:29.120Z,11.92
2022-09-29T15:33:57.216Z,11.89
2022-09-29T15:36:27.532Z,11.75
2022-09-29T15:38:56.978Z,11.79
2022-09-29T15:41:29.059Z,11.59
2022-09-29T15:44:00.558Z,11.87
2022-09-29T15:46:37.202Z,11.77
2022-09-29T15:49:19.290Z,11.52
2022-09-29T15:51:58.058Z,11.66
2022-09-29T15:54:27.237Z,11.66
2022-09-29T15:57:12.564Z,11.71
2022-09-29T15:59:42.823Z,11.72
2022-09-29T16:02:19.189Z,11.73
2022-09-29T16:04:48.377Z,11.67
2022-09-29T16:07:24.399Z,11.78
2022-09-29T16:09:52.893Z,11.72
2022-09-29T16:12:21.855Z,11.67
2022-09-29T16:14:50.022Z,11.69
2022-09-29T16:17:18.205Z,11.67
2022-09-29T16:19:47.862Z,11.64
2022-09-29T16:22:22.462Z,11.60
2022-09-29T16:24:55.310Z,11.55
2022-09-29T16:27:42.893Z,11.54
2022-09-29T16:30:20.263Z,11.45
2022-09-29T16:32:54.690Z,11.45
2022-09-29T16:35:40.188Z,11.41
2022-09-29T16:38:33.244Z,11.31
2022-09-29T16:41:02.289Z,11.32
2022-09-29T16:43:31.909Z,11.24
2022-09-29T16:46:01.347Z,11.21
2022-09-29T16:48:31.678Z,11.06
2022-09-29T16:51:05.747Z,11.21
2022-09-29T16:53:37.797Z,11.19
2022-09-29T16:56:10.843Z,11.19
2022-09-29T16:58:38.744Z,11.11
2022-09-29T17:01:07.745Z,11.18
2022-09-29T17:03:36.301Z,11.11
2022-09-29T17:06:05.604Z,10.90
2022-09-29T17:08:34.804Z,11.13
2022-09-29T17:11:04.097Z,11.05
2022-09-29T17:13:35.088Z,11.07
2022-09-29T17:16:03.912Z,10.87
2022-09-29T17:18:32.181Z,11.06
2022-09-29T17:21:00.087Z,11.06
2022-09-29T17:23:27.984Z,11.07
2022-09-29T17:26:16.309Z,11.11
2022-09-29T17:28:44.598Z,11.16
2022-09-29T17:31:13.817Z,11.19
2022-09-29T17:33:41.974Z,11.14
2022-09-29T17:36:10.962Z,11.15
2022-09-29T17:38:39.618Z,11.03
2022-09-29T17:41:08.203Z,10.93
2022-09-29T17:43:36.073Z,11.13
2022-09-29T17:46:07.092Z,11.13
2022-09-29T17:48:35.950Z,11.17
2022-09-29T17:51:04.035Z,11.21
2022-09-29T17:53:31.963Z,11.16
2022-09-29T17:55:59.851Z,11.14
2022-09-29T17:58:27.793Z,11.11
2022-09-29T18:00:57.427Z,11.00
2022-09-29T18:03:27.181Z,11.06
2022-09-29T18:05:58.260Z,11.01
2022-09-29T18:08:27.789Z,10.99
2022-09-29T18:10:57.162Z,11.00
2022-09-29T18:13:27.301Z,11.00
2022-09-29T18:15:55.599Z,10.74
2022-09-29T18:18:24.562Z,10.83
2022-09-29T18:20:54.030Z,10.76
2022-09-29T18:23:23.211Z,10.73
2022-09-29T18:25:53.118Z,10.76
2022-09-29T18:28:21.659Z,10.77
2022-09-29T18:30:52.153Z,10.83
2022-09-29T18:33:21.433Z,10.91
2022-09-29T18:35:54.466Z,10.91
2022-09-29T18:38:22.587Z,10.81
2022-09-29T18:40:54.150Z,10.73
2022-09-29T18:43:27.319Z,10.79
2022-09-29T18:45:57.494Z,10.78
2022-09-29T18:48:25.437Z,10.81
2022-09-29T18:50:56.692Z,10.87
2022-09-29T18:53:25.126Z,10.76
2022-09-29T18:55:57.568Z,10.86
2022-09-29T18:58:25.518Z,10.90
2022-09-29T19:00:55.418Z,10.91
2022-09-29T19:03:24.545Z,10.90
2022-09-29T19:05:54.425Z,10.93
2022-09-29T19:08:22.604Z,10.91
2022-09-29T19:10:51.727Z,10.91
2022-09-29T19:13:20.147Z,10.93
2022-09-29T19:15:48.675Z,10.94
2022-09-29T19:18:23.686Z,11.05
2022-09-29T19:20:52.344Z,10.99
2022-09-29T19:23:21.886Z,10.96
2022-09-29T19:25:51.421Z,10.97
2022-09-29T19:28:20.946Z,10.93
2022-09-29T19:30:49.403Z,10.97
2022-09-29T19:33:19.132Z,10.93
2022-09-29T19:35:48.450Z,10.92
2022-09-29T19:38:16.499Z,10.97
2022-09-29T19:40:47.389Z,10.90
2022-09-29T19:43:15.731Z,10.95
2022-09-29T19:45:44.850Z,10.84
2022-09-29T19:48:15.258Z,10.94
2022-09-29T19:51:00.563Z,10.94
2022-09-29T19:53:28.547Z,10.93
2022-09-29T19:55:57.867Z,10.95
2022-09-29T19:58:25.930Z,11.00
2022-09-29T20:00:57.228Z,11.06
2022-09-29T20:03:25.668Z,11.06
2022-09-29T20:06:00.052Z,10.92
2022-09-29T20:08:28.037Z,10.88
2022-09-29T20:11:06.141Z,10.88
2022-09-29T20:13:34.100Z,10.90
2022-09-29T20:16:02.518Z,10.89
2022-09-29T20:18:30.499Z,10.97
2022-09-29T20:20:58.415Z,10.93
2022-09-29T20:23:26.300Z,10.98
2022-09-29T20:26:02.293Z,10.85
2022-09-29T20:28:31.639Z,10.86
2022-09-29T20:31:00.075Z,10.82
2022-09-29T20:33:28.231Z,10.90
2022-09-29T20:35:56.410Z,10.89
2022-09-29T20:38:24.368Z,10.93
2022-09-29T20:40:52.241Z,10.85
2022-09-29T20:43:22.467Z,10.67
2022-09-29T20:45:50.360Z,10.82
2022-09-29T20:48:18.259Z,10.85
2022-09-29T20:50:46.302Z,10.80
2022-09-29T20:53:14.905Z,10.82
2022-09-29T20:55:42.888Z,10.84
2022-09-29T20:58:12.547Z,10.75
2022-09-29T21:00:41.949Z,10.76
2022-09-29T21:03:09.855Z,10.80
2022-09-29T21:05:37.752Z,10.79
2022-09-29T21:08:06.665Z,10.77
2022-09-29T21:10:34.758Z,10.87
2022-09-29T21:13:03.214Z,10.80
2022-09-29T21:15:31.196Z,10.78
2022-09-29T21:18:00.456Z,10.71
2022-09-29T21:20:28.349Z,10.65
2022-09-29T21:22:56.329Z,10.65
2022-09-29T21:25:26.682Z,10.54
2022-09-29T21:27:54.585Z,10.65
2022-09-29T21:30:22.456Z,10.62
2022-09-29T21:32:50.378Z,10.60
2022-09-29T21:35:19.720Z,10.64
2022-09-29T21:37:47.633Z,10.66
2022-09-29T21:40:15.673Z,10.57
2022-09-29T21:42:43.570Z,10.55
2022-09-29T21:45:11.853Z,10.50
2022-09-29T21:47:56.989Z,10.45
2022-09-29T21:50:26.510Z,10.44
2022-09-29T21:52:54.392Z,10.50
2022-09-29T21:55:22.274Z,10.39
2022-09-29T21:57:50.156Z,10.33
2022-09-29T22:00:18.599Z,10.31
2022-09-29T22:02:46.618Z,10.41
2022-09-29T22:05:14.662Z,10.37
2022-09-29T22:07:43.951Z,10.38
2022-09-29T22:10:11.873Z,10.31
2022-09-29T22:12:39.974Z,10.30
2022-09-29T22:15:08.709Z,10.38
2022-09-29T22:17:36.605Z,10.30
2022-09-29T22:20:05.431Z,10.22
2022-09-29T22:22:33.321Z,10.29
2022-09-29T22:25:02.715Z,10.29
2022-09-29T22:27:30.600Z,10.26
2022-09-29T22:29:58.500Z,10.32
2022-09-29T22:32:26.428Z,10.29
2022-09-29T22:34:54.999Z,10.37
2022-09-29T22:37:27.556Z,10.40
2022-09-29T22:39:58.168Z,10.38
2022-09-29T22:42:28.464Z,10.36
2022-09-29T22:44:56.403Z,10.31
2022-09-29T22:47:25.429Z,10.44
2022-09-29T22:49:53.363Z,10.33
2022-09-29T22:52:21.251Z,10.29
2022-09-29T22:54:49.121Z,10.28
2022-09-29T22:57:17.041Z,10.31
2022-09-29T22:59:46.298Z,10.25
2022-09-29T23:02:14.252Z,10.56
2022-09-29T23:04:42.197Z,10.43
2022-09-29T23:07:10.465Z,10.46
2022-09-29T23:09:38.465Z,10.32
2022-09-29T23:12:08.108Z,10.29
2022-09-29T23:14:36.092Z,10.33
2022-09-29T23:17:05.373Z,10.37
2022-09-29T23:19:33.418Z,10.12
2022-09-29T23:22:01.392Z,10.01
2022-09-29T23:24:29.264Z,10.45
2022-09-29T23:26:59.848Z,10.30
2022-09-29T23:29:27.787Z,10.17
2022-09-29T23:31:55.735Z,9.93
2022-09-29T23:34:25.118Z,9.81
2022-09-29T23:36:53.017Z,9.90
2022-09-29T23:39:19.941Z,10.18
2022-09-29T23:41:49.891Z,10.32
2022-09-29T23:44:19.224Z,10.15
2022-09-29T23:46:47.646Z,10.01
2022-09-29T23:49:18.115Z,9.97
2022-09-29T23:51:48.716Z,10.06
2022-09-29T23:54:18.109Z,10.00
2022-09-29T23:56:46.821Z,9.98
2022-09-29T23:59:14.892Z,10.03
